Time;durP1;ratioP1;P1;durP2;ratioP2;P2;SDS_P1;SDS_P2;PMS_P1;PMS_P2;Temp;Humidity;BMP_temperature;BMP_pressure;BME280_temperature;BME280_humidity;BME280_pressure;Samples;Min_cycle;Max_cycle;Signal;HPM_P1;HPM_P2
2021/07/03 00:01:56;;;;;;;26.38;17.83;;;15.00;99.90;;;;;;5072336;28;21234;-64
2021/07/03 00:04:23;;;;;;;31.05;19.20;;;15.10;99.90;;;;;;5074209;28;20044;-65
2021/07/03 00:06:50;;;;;;;30.35;18.92;;;15.10;99.90;;;;;;5068423;28;20622;-64
2021/07/03 00:09:19;;;;;;;29.92;18.50;;;15.10;99.90;;;;;;5064924;28;20097;-63
2021/07/03 00:11:47;;;;;;;32.35;18.95;;;15.20;99.90;;;;;;5070101;28;20317;-66
2021/07/03 00:14:15;;;;;;;30.50;18.95;;;15.40;99.90;;;;;;5068737;28;20058;-64
2021/07/03 00:16:43;;;;;;;30.02;18.05;;;15.40;99.90;;;;;;5069475;28;20050;-67
2021/07/03 00:19:10;;;;;;;29.48;17.20;;;15.30;99.90;;;;;;5066383;28;20126;-65
2021/07/03 00:21:38;;;;;;;29.85;18.00;;;15.20;99.90;;;;;;5068546;28;20793;-66
2021/07/03 00:24:06;;;;;;;28.27;18.33;;;15.20;99.90;;;;;;5064676;28;20682;-66
2021/07/03 00:26:34;;;;;;;29.70;17.00;;;15.10;99.90;;;;;;5065478;28;20148;-64
2021/07/03 00:29:01;;;;;;;29.98;18.33;;;15.00;99.90;;;;;;5067997;28;20143;-65
2021/07/03 00:31:28;;;;;;;35.97;18.95;;;15.00;99.90;;;;;;5067136;28;20058;-64
2021/07/03 00:33:55;;;;;;;34.40;19.50;;;14.90;99.90;;;;;;5073114;28;20075;-66
2021/07/03 00:36:22;;;;;;;31.80;19.50;;;14.90;99.90;;;;;;5071914;28;20047;-64
2021/07/03 00:38:49;;;;;;;32.58;19.10;;;14.90;99.90;;;;;;5069795;28;20104;-64
2021/07/03 00:41:16;;;;;;;32.08;19.45;;;15.00;99.90;;;;;;5066401;28;20581;-65
2021/07/03 00:43:45;;;;;;;32.53;19.67;;;14.90;99.90;;;;;;5064851;28;20105;-66
2021/07/03 00:46:12;;;;;;;36.35;18.75;;;14.90;99.90;;;;;;5069839;28;20043;-66
2021/07/03 00:48:39;;;;;;;38.30;21.42;;;14.90;99.90;;;;;;5066278;28;20055;-65
2021/07/03 00:51:06;;;;;;;33.90;19.98;;;14.80;99.90;;;;;;5064442;28;20047;-64
2021/07/03 00:53:33;;;;;;;41.67;18.92;;;14.80;99.90;;;;;;5066977;28;20113;-66
2021/07/03 00:56:01;;;;;;;37.72;18.80;;;14.60;99.90;;;;;;5066426;28;20090;-64
2021/07/03 00:58:28;;;;;;;31.10;19.67;;;14.60;99.90;;;;;;5067257;28;20065;-64
2021/07/03 01:00:56;;;;;;;34.67;19.08;;;14.50;99.90;;;;;;5067277;28;20137;-64
2021/07/03 01:03:23;;;;;;;32.97;20.00;;;14.40;99.90;;;;;;5067194;28;20044;-64
2021/07/03 01:05:51;;;;;;;33.45;19.65;;;14.40;99.90;;;;;;5073257;28;20474;-64
2021/07/03 01:08:18;;;;;;;34.70;19.77;;;14.40;99.90;;;;;;5068558;28;20644;-66
2021/07/03 01:10:45;;;;;;;34.92;21.60;;;14.40;99.90;;;;;;5065397;28;20168;-63
2021/07/03 01:13:12;;;;;;;31.10;19.67;;;14.30;99.90;;;;;;5066624;28;20137;-63
2021/07/03 01:15:39;;;;;;;35.22;20.13;;;14.30;99.90;;;;;;5064388;28;20484;-64
2021/07/03 01:18:08;;;;;;;31.00;19.00;;;14.30;99.90;;;;;;5065075;28;20071;-64
2021/07/03 01:20:35;;;;;;;37.67;20.48;;;14.20;99.90;;;;;;5064394;28;20127;-62
2021/07/03 01:23:03;;;;;;;36.25;19.98;;;14.30;99.90;;;;;;5065971;28;20105;-67
2021/07/03 01:25:30;;;;;;;34.35;20.58;;;14.20;99.90;;;;;;5064606;28;20055;-64
2021/07/03 01:28:00;;;;;;;30.60;18.67;;;14.20;99.90;;;;;;5067029;28;20080;-63
2021/07/03 01:30:27;;;;;;;39.47;20.02;;;14.20;99.90;;;;;;5064119;28;20055;-66
2021/07/03 01:32:54;;;;;;;35.22;19.67;;;14.20;99.90;;;;;;5068673;28;20070;-65
2021/07/03 01:35:25;;;;;;;31.45;19.05;;;14.20;99.90;;;;;;5064698;28;20135;-62
2021/07/03 01:37:52;;;;;;;37.10;20.27;;;14.40;99.90;;;;;;5064085;28;20043;-64
2021/07/03 01:40:21;;;;;;;32.25;20.42;;;14.40;99.90;;;;;;5065916;28;20051;-64
2021/07/03 01:42:48;;;;;;;30.77;18.95;;;14.20;99.90;;;;;;5073499;27;20458;-64
2021/07/03 01:45:15;;;;;;;34.58;19.35;;;14.20;99.90;;;;;;5067742;28;20055;-63
2021/07/03 01:47:43;;;;;;;30.60;19.92;;;14.20;99.90;;;;;;5065834;28;20091;-64
2021/07/03 01:50:11;;;;;;;31.58;19.77;;;14.30;99.90;;;;;;5067431;28;20056;-63
2021/07/03 01:52:38;;;;;;;32.42;19.17;;;14.20;99.90;;;;;;5061951;28;20512;-64
2021/07/03 01:55:07;;;;;;;30.67;18.10;;;14.20;99.90;;;;;;5059798;28;20085;-64
2021/07/03 01:57:36;;;;;;;32.00;18.23;;;14.10;99.90;;;;;;5060730;28;20055;-66
2021/07/03 02:00:05;;;;;;;31.08;18.27;;;14.10;99.90;;;;;;5064032;28;20044;-63
2021/07/03 02:02:32;;;;;;;30.23;18.35;;;14.10;99.90;;;;;;5063198;28;20051;-64
2021/07/03 02:04:59;;;;;;;32.72;19.20;;;14.00;99.90;;;;;;5061920;28;20047;-62
2021/07/03 02:07:26;;;;;;;37.45;19.38;;;14.00;99.90;;;;;;5063743;28;20679;-66
2021/07/03 02:09:53;;;;;;;36.08;21.17;;;14.00;99.90;;;;;;5066534;28;20076;-65
2021/07/03 02:12:20;;;;;;;33.65;20.40;;;14.00;99.90;;;;;;5064473;28;20051;-66
2021/07/03 02:14:48;;;;;;;39.53;20.40;;;13.90;99.90;;;;;;5066081;28;20090;-65
2021/07/03 02:17:15;;;;;;;41.92;22.13;;;13.90;99.90;;;;;;5067680;28;20044;-63
2021/07/03 02:19:42;;;;;;;34.58;21.42;;;13.90;99.90;;;;;;5066051;28;20080;-64
2021/07/03 02:22:09;;;;;;;37.83;20.67;;;14.00;99.90;;;;;;5068971;28;20048;-63
2021/07/03 02:24:37;;;;;;;39.03;20.88;;;14.00;99.90;;;;;;5067558;28;20086;-64
2021/07/03 02:27:04;;;;;;;35.33;20.33;;;14.00;99.90;;;;;;5066991;28;20060;-64
2021/07/03 02:29:31;;;;;;;38.47;19.98;;;14.10;99.90;;;;;;5065141;28;20156;-63
2021/07/03 02:32:00;;;;;;;37.45;19.63;;;14.10;99.90;;;;;;5065504;28;20519;-66
2021/07/03 02:34:27;;;;;;;32.08;19.08;;;14.00;99.90;;;;;;5067806;28;20518;-64
2021/07/03 02:36:54;;;;;;;30.85;18.63;;;14.00;99.90;;;;;;5066568;28;20059;-63
2021/07/03 02:39:21;;;;;;;32.95;18.88;;;14.00;99.90;;;;;;5066343;28;20050;-63
2021/07/03 02:41:48;;;;;;;34.95;19.10;;;14.00;99.90;;;;;;5065940;28;20044;-64
2021/07/03 02:44:15;;;;;;;32.83;18.08;;;14.10;99.90;;;;;;5066498;28;20110;-62
2021/07/03 02:46:42;;;;;;;34.50;20.58;;;14.10;99.90;;;;;;5065639;28;20556;-64
2021/07/03 02:49:10;;;;;;;30.58;18.27;;;14.10;99.90;;;;;;5063014;28;20175;-65
2021/07/03 02:51:37;;;;;;;35.13;18.27;;;14.10;99.90;;;;;;5067917;28;20075;-65
2021/07/03 02:54:04;;;;;;;29.20;18.25;;;14.10;99.90;;;;;;5066621;28;20165;-62
2021/07/03 02:56:31;;;;;;;31.65;17.73;;;14.00;99.90;;;;;;5067249;28;20079;-65
2021/07/03 02:58:58;;;;;;;33.88;18.80;;;14.00;99.90;;;;;;5063358;28;20559;-62
2021/07/03 03:01:25;;;;;;;35.78;17.92;;;14.00;99.90;;;;;;5065605;28;20040;-63
2021/07/03 03:03:52;;;;;;;29.25;17.85;;;13.90;99.90;;;;;;5064691;28;20044;-63
2021/07/03 03:06:20;;;;;;;31.52;18.08;;;13.90;99.90;;;;;;5066080;28;20116;-66
2021/07/03 03:08:48;;;;;;;31.15;17.73;;;13.90;99.90;;;;;;5062257;28;20075;-64
2021/07/03 03:11:14;;;;;;;32.72;18.52;;;13.80;99.90;;;;;;5064179;28;20040;-66
2021/07/03 03:13:41;;;;;;;39.35;18.98;;;13.80;99.90;;;;;;5067286;28;20751;-63
2021/07/03 03:16:08;;;;;;;35.00;18.88;;;13.80;99.90;;;;;;5065660;28;20071;-66
2021/07/03 03:18:35;;;;;;;32.78;18.90;;;13.80;99.90;;;;;;5068089;28;20055;-64
2021/07/03 03:21:03;;;;;;;38.42;19.77;;;13.80;99.90;;;;;;5074959;28;20499;-64
2021/07/03 03:23:31;;;;;;;38.05;19.77;;;13.70;99.90;;;;;;5072948;28;20496;-63
2021/07/03 03:25:58;;;;;;;33.00;19.70;;;13.70;99.90;;;;;;5069572;28;20534;-64
2021/07/03 03:28:25;;;;;;;31.35;19.65;;;13.60;99.90;;;;;;5067264;28;20088;-64
2021/07/03 03:30:52;;;;;;;34.17;19.48;;;13.80;99.90;;;;;;5071534;28;20507;-65
2021/07/03 03:33:19;;;;;;;36.53;19.70;;;13.90;99.90;;;;;;5070832;28;20047;-64
2021/07/03 03:35:46;;;;;;;34.78;18.88;;;13.90;99.90;;;;;;5067847;28;20051;-65
2021/07/03 03:38:13;;;;;;;32.83;18.55;;;13.90;99.90;;;;;;5066003;28;20489;-63
2021/07/03 03:40:42;;;;;;;32.35;18.58;;;13.90;99.90;;;;;;5068197;28;20645;-62
2021/07/03 03:43:10;;;;;;;30.67;19.00;;;14.00;99.90;;;;;;5068329;28;21717;-63
2021/07/03 03:45:37;;;;;;;29.30;18.13;;;14.00;99.90;;;;;;5069982;28;20055;-65
2021/07/03 03:48:05;;;;;;;32.72;18.67;;;14.00;99.90;;;;;;5068691;28;20143;-64
2021/07/03 03:50:33;;;;;;;32.30;19.00;;;14.10;99.90;;;;;;5067507;28;20098;-64
2021/07/03 03:53:00;;;;;;;29.95;18.02;;;14.10;99.90;;;;;;5068999;28;20138;-63
2021/07/03 03:55:27;;;;;;;41.10;19.73;;;14.20;99.90;;;;;;5066004;28;20094;-66
2021/07/03 03:57:56;;;;;;;27.13;17.88;;;14.20;99.90;;;;;;5066620;28;20075;-66
2021/07/03 04:00:23;;;;;;;34.40;19.98;;;14.20;99.90;;;;;;5065297;28;20148;-63
2021/07/03 04:02:50;;;;;;;33.72;19.38;;;14.20;99.90;;;;;;5069446;28;20124;-64
2021/07/03 04:05:18;;;;;;;37.10;19.75;;;14.10;99.90;;;;;;5064643;28;20527;-63
2021/07/03 04:07:45;;;;;;;32.20;19.17;;;14.10;99.90;;;;;;5066384;28;20077;-63
2021/07/03 04:10:14;;;;;;;31.35;18.52;;;14.10;99.90;;;;;;5066751;28;20447;-64
2021/07/03 04:12:42;;;;;;;33.53;19.38;;;14.10;99.90;;;;;;5066966;28;20182;-64
2021/07/03 04:15:12;;;;;;;34.15;20.23;;;14.00;99.90;;;;;;5065304;28;20044;-66
2021/07/03 04:17:40;;;;;;;32.30;18.42;;;14.00;99.90;;;;;;5065630;28;20144;-65
2021/07/03 04:20:09;;;;;;;33.85;18.63;;;14.00;99.90;;;;;;5073816;28;20087;-64
2021/07/03 04:22:37;;;;;;;29.88;17.52;;;14.00;99.90;;;;;;5073831;28;20043;-64
2021/07/03 04:25:05;;;;;;;29.17;17.55;;;14.00;99.90;;;;;;5069156;28;20083;-64
2021/07/03 04:27:33;;;;;;;32.17;18.38;;;14.00;99.90;;;;;;5071715;28;20079;-64
2021/07/03 04:30:00;;;;;;;32.63;19.23;;;14.10;99.90;;;;;;5074536;28;20461;-64
2021/07/03 04:32:28;;;;;;;28.23;17.08;;;14.20;99.90;;;;;;5073138;28;20467;-65
2021/07/03 04:34:55;;;;;;;31.75;19.38;;;14.20;99.90;;;;;;5069656;28;20047;-64
2021/07/03 04:37:22;;;;;;;29.67;17.10;;;14.30;99.90;;;;;;5073274;28;20058;-66
2021/07/03 04:39:49;;;;;;;31.42;17.92;;;14.30;99.90;;;;;;5071057;28;20478;-63
2021/07/03 04:42:19;;;;;;;29.95;18.70;;;14.30;99.90;;;;;;5071107;28;20570;-65
2021/07/03 04:44:46;;;;;;;29.65;17.15;;;14.30;99.90;;;;;;5072794;28;20079;-65
2021/07/03 04:47:13;;;;;;;29.38;17.88;;;14.30;99.90;;;;;;5071580;28;20048;-63
2021/07/03 04:49:42;;;;;;;30.75;17.90;;;14.20;99.90;;;;;;5069443;28;20070;-63
2021/07/03 04:52:09;;;;;;;29.73;18.25;;;14.30;99.90;;;;;;5073135;28;20082;-65
2021/07/03 04:54:36;;;;;;;31.65;19.02;;;14.40;99.90;;;;;;5072477;28;20080;-63
2021/07/03 04:57:11;;;;;;;27.48;17.58;;;14.30;99.90;;;;;;5073632;28;20450;-63
2021/07/03 04:59:39;;;;;;;29.50;17.83;;;14.30;99.90;;;;;;5072149;28;20059;-65
2021/07/03 05:02:07;;;;;;;30.05;19.00;;;14.40;99.90;;;;;;5072018;28;20052;-64
2021/07/03 05:04:35;;;;;;;27.60;18.23;;;14.50;99.90;;;;;;5071561;28;20127;-64
2021/07/03 05:07:04;;;;;;;26.10;17.27;;;14.40;99.90;;;;;;5071359;28;20048;-62
2021/07/03 05:09:31;;;;;;;28.77;18.40;;;14.50;99.90;;;;;;5070996;28;20488;-64
2021/07/03 05:11:59;;;;;;;37.75;19.33;;;14.60;99.90;;;;;;5072033;28;20233;-63
2021/07/03 05:14:26;;;;;;;46.63;20.95;;;14.70;99.90;;;;;;5071546;28;20086;-64
2021/07/03 05:16:54;;;;;;;40.53;19.95;;;14.80;99.90;;;;;;5073564;28;20055;-63
2021/07/03 05:19:21;;;;;;;46.42;20.88;;;14.80;99.90;;;;;;5071556;28;20101;-62
2021/07/03 05:21:48;;;;;;;32.97;18.75;;;14.90;99.90;;;;;;5073342;28;20388;-64
2021/07/03 05:24:16;;;;;;;31.27;18.10;;;15.00;99.90;;;;;;5069618;28;20106;-65
2021/07/03 05:26:43;;;;;;;31.05;18.77;;;15.00;99.90;;;;;;5071975;28;20123;-65
2021/07/03 05:29:10;;;;;;;27.70;16.60;;;15.10;99.90;;;;;;5071622;28;20579;-64
2021/07/03 05:31:37;;;;;;;37.17;16.73;;;15.20;99.90;;;;;;5072164;28;20083;-64
2021/07/03 05:34:04;;;;;;;29.02;17.65;;;15.30;99.90;;;;;;5071446;28;20052;-64
2021/07/03 05:36:33;;;;;;;27.38;17.27;;;15.40;99.90;;;;;;5070343;28;20105;-63
2021/07/03 05:39:03;;;;;;;25.00;17.30;;;15.30;99.90;;;;;;5067647;28;20466;-64
2021/07/03 05:41:34;;;;;;;28.65;16.52;;;15.40;99.90;;;;;;5066461;28;20256;-64
2021/07/03 05:44:01;;;;;;;25.67;16.38;;;15.40;99.90;;;;;;5067360;28;21061;-64
2021/07/03 05:46:28;;;;;;;24.02;15.82;;;15.50;99.90;;;;;;5065325;28;20113;-63
2021/07/03 05:48:55;;;;;;;23.05;15.20;;;15.60;99.90;;;;;;5063060;28;20137;-65
2021/07/03 05:51:24;;;;;;;25.40;14.77;;;15.50;99.90;;;;;;5067123;28;20126;-63
2021/07/03 05:53:51;;;;;;;26.65;14.85;;;15.80;99.90;;;;;;5065578;28;20067;-65
2021/07/03 05:56:19;;;;;;;22.35;14.73;;;15.80;99.90;;;;;;5066588;28;20058;-67
2021/07/03 05:58:47;;;;;;;23.02;14.35;;;15.90;99.90;;;;;;5063502;28;20048;-68
2021/07/03 06:01:14;;;;;;;26.23;14.45;;;16.00;99.90;;;;;;5067337;28;20047;-67
2021/07/03 06:03:41;;;;;;;31.52;15.02;;;16.10;99.90;;;;;;5071870;28;20052;-66
2021/07/03 06:06:08;;;;;;;27.60;14.90;;;16.10;99.90;;;;;;5065061;28;20492;-65
2021/07/03 06:08:35;;;;;;;24.95;15.18;;;16.10;99.90;;;;;;5063813;28;20100;-63
2021/07/03 06:11:02;;;;;;;20.02;12.77;;;16.10;99.90;;;;;;5065906;28;20133;-65
2021/07/03 06:13:29;;;;;;;21.92;13.73;;;16.30;99.90;;;;;;5068505;28;20044;-63
2021/07/03 06:15:57;;;;;;;22.45;13.90;;;16.40;99.90;;;;;;5063895;28;20044;-63
2021/07/03 06:18:25;;;;;;;21.30;13.18;;;16.30;99.90;;;;;;5065877;28;20075;-63
2021/07/03 06:20:53;;;;;;;21.50;12.77;;;16.40;99.90;;;;;;5065145;28;20056;-63
2021/07/03 06:23:20;;;;;;;17.42;12.00;;;16.50;99.90;;;;;;5064284;28;20052;-63
2021/07/03 06:25:47;;;;;;;20.95;12.25;;;16.60;99.90;;;;;;5067340;28;20157;-64
2021/07/03 06:28:14;;;;;;;22.23;11.75;;;16.70;99.90;;;;;;5063977;28;20080;-63
2021/07/03 06:30:41;;;;;;;19.40;12.45;;;16.70;99.90;;;;;;5064941;28;20591;-64
2021/07/03 06:33:09;;;;;;;20.77;12.77;;;16.90;99.90;;;;;;5064370;28;20079;-65
2021/07/03 06:35:36;;;;;;;25.33;13.48;;;16.90;99.90;;;;;;5064000;28;20125;-63
2021/07/03 06:38:04;;;;;;;19.10;12.02;;;17.10;99.90;;;;;;5064855;28;20048;-65
2021/07/03 06:40:31;;;;;;;18.42;11.63;;;17.00;99.90;;;;;;5067677;28;20083;-63
2021/07/03 06:42:58;;;;;;;18.98;12.80;;;17.10;99.90;;;;;;5066886;28;20067;-66
2021/07/03 06:45:25;;;;;;;19.65;11.52;;;17.20;99.90;;;;;;5066176;28;20051;-62
2021/07/03 06:47:52;;;;;;;16.58;11.85;;;17.20;99.90;;;;;;5064158;28;20083;-66
2021/07/03 06:50:21;;;;;;;21.70;11.98;;;17.30;99.90;;;;;;5065733;28;20079;-64
2021/07/03 06:52:48;;;;;;;17.45;11.98;;;17.50;99.90;;;;;;5068493;28;20056;-64
2021/07/03 06:55:15;;;;;;;21.42;12.10;;;17.50;99.90;;;;;;5068497;28;20060;-63
2021/07/03 06:57:42;;;;;;;19.50;12.13;;;17.60;99.90;;;;;;5067346;28;21091;-63
2021/07/03 07:00:10;;;;;;;19.50;11.38;;;17.80;99.90;;;;;;5068713;28;20056;-63
2021/07/03 07:02:38;;;;;;;18.65;11.50;;;18.00;99.90;;;;;;5068360;28;20138;-65
2021/07/03 07:05:07;;;;;;;18.10;11.50;;;18.00;99.90;;;;;;5069515;28;20122;-64
2021/07/03 07:07:36;;;;;;;17.60;11.88;;;18.20;99.90;;;;;;5068998;28;20555;-66
2021/07/03 07:10:03;;;;;;;18.50;12.13;;;18.30;99.90;;;;;;5070284;28;20075;-65
2021/07/03 07:12:30;;;;;;;20.30;12.18;;;18.40;99.90;;;;;;5071024;28;20388;-66
2021/07/03 07:14:58;;;;;;;17.08;11.48;;;18.40;99.90;;;;;;5071261;28;20086;-64
2021/07/03 07:17:25;;;;;;;24.13;12.98;;;18.50;99.90;;;;;;5067338;28;20512;-64
2021/07/03 07:19:52;;;;;;;19.73;12.65;;;18.60;99.90;;;;;;5068467;28;20050;-64
2021/07/03 07:22:19;;;;;;;20.13;12.95;;;18.60;99.90;;;;;;5065180;28;20147;-63
2021/07/03 07:24:47;;;;;;;19.20;11.88;;;18.70;99.90;;;;;;5067895;28;20511;-64
2021/07/03 07:27:14;;;;;;;19.10;11.23;;;18.80;99.90;;;;;;5069198;28;20043;-63
2021/07/03 07:29:41;;;;;;;17.58;11.57;;;18.70;99.90;;;;;;5064690;28;20052;-63
2021/07/03 07:32:08;;;;;;;18.02;12.00;;;18.90;99.90;;;;;;5069158;27;20047;-64
2021/07/03 07:34:35;;;;;;;19.83;11.43;;;19.00;99.90;;;;;;5069972;28;20095;-63
2021/07/03 07:37:04;;;;;;;18.92;11.73;;;19.10;99.90;;;;;;5067144;28;20082;-64
2021/07/03 07:39:32;;;;;;;19.55;12.18;;;19.20;99.90;;;;;;5072624;28;20079;-66
2021/07/03 07:42:00;;;;;;;19.23;12.23;;;19.40;99.90;;;;;;5069637;28;20056;-65
2021/07/03 07:44:27;;;;;;;18.95;11.73;;;19.30;99.90;;;;;;5066323;28;20052;-65
2021/07/03 07:46:54;;;;;;;19.17;11.85;;;19.40;99.90;;;;;;5069895;28;20721;-64
2021/07/03 07:49:21;;;;;;;18.60;11.60;;;19.50;99.90;;;;;;5064855;28;20150;-65
2021/07/03 07:51:48;;;;;;;23.92;12.68;;;19.40;99.90;;;;;;5067559;28;20055;-64
2021/07/03 07:54:15;;;;;;;17.42;12.23;;;19.50;99.90;;;;;;5068440;28;20051;-66
2021/07/03 07:56:42;;;;;;;23.05;11.82;;;19.60;99.90;;;;;;5068787;28;20423;-66
2021/07/03 07:59:11;;;;;;;19.15;11.45;;;19.70;99.90;;;;;;5070140;28;20109;-64
2021/07/03 08:01:38;;;;;;;16.10;10.90;;;19.90;99.90;;;;;;5071285;28;20067;-64
2021/07/03 08:04:05;;;;;;;17.75;11.13;;;20.00;99.90;;;;;;5067434;28;20132;-65
2021/07/03 08:06:32;;;;;;;18.88;11.77;;;20.10;99.90;;;;;;5069876;28;20072;-64
2021/07/03 08:08:59;;;;;;;19.38;11.18;;;20.10;99.90;;;;;;5065370;28;20498;-66
2021/07/03 08:11:26;;;;;;;20.50;11.40;;;20.40;99.90;;;;;;5068161;28;20896;-65
2021/07/03 08:13:53;;;;;;;17.02;10.80;;;20.40;99.90;;;;;;5067065;28;20416;-63
2021/07/03 08:16:22;;;;;;;16.60;10.88;;;20.20;99.90;;;;;;5069076;28;20477;-63
2021/07/03 08:18:49;;;;;;;17.50;11.27;;;20.30;99.90;;;;;;5068495;28;20047;-63
2021/07/03 08:21:17;;;;;;;17.02;10.63;;;20.40;99.90;;;;;;5066171;28;20052;-64
2021/07/03 08:23:44;;;;;;;18.88;11.18;;;20.60;99.90;;;;;;5068612;28;20419;-64
2021/07/03 08:26:11;;;;;;;16.27;10.30;;;20.90;99.90;;;;;;5061350;28;20055;-63
2021/07/03 08:28:38;;;;;;;19.45;10.20;;;21.00;99.90;;;;;;5062138;28;20062;-63
2021/07/03 08:31:05;;;;;;;18.15;10.93;;;21.10;99.90;;;;;;5067242;28;20075;-63
2021/07/03 08:33:33;;;;;;;17.75;10.07;;;21.30;99.90;;;;;;5067226;28;20085;-64
2021/07/03 08:36:01;;;;;;;17.90;9.40;;;21.50;99.90;;;;;;5065147;28;20097;-64
2021/07/03 08:38:28;;;;;;;17.30;9.77;;;21.70;99.90;;;;;;5066213;28;20048;-64
2021/07/03 08:40:56;;;;;;;17.27;9.38;;;21.90;99.90;;;;;;5065173;28;20051;-63
2021/07/03 08:43:23;;;;;;;14.82;9.77;;;22.30;99.90;;;;;;5065525;28;20128;-66
2021/07/03 08:45:56;;;;;;;17.73;10.90;;;22.50;99.90;;;;;;5065280;28;20497;-64
2021/07/03 08:48:23;;;;;;;13.07;9.27;;;22.40;99.90;;;;;;5061853;28;20059;-64
2021/07/03 08:50:51;;;;;;;17.50;9.95;;;23.00;99.90;;;;;;5066137;28;20084;-66
2021/07/03 08:53:22;;;;;;;13.77;8.77;;;23.30;99.90;;;;;;5066541;28;20048;-64
2021/07/03 08:55:50;;;;;;;14.05;8.80;;;23.60;99.90;;;;;;5066571;28;20043;-64
2021/07/03 08:58:17;;;;;;;13.35;8.32;;;24.20;99.90;;;;;;5061592;28;20101;-64
2021/07/03 09:00:46;;;;;;;15.40;8.93;;;24.80;99.90;;;;;;5066276;28;20131;-66
2021/07/03 09:03:15;;;;;;;15.88;8.60;;;25.40;99.90;;;;;;5065159;28;20047;-67
2021/07/03 09:05:43;;;;;;;14.20;9.00;;;26.00;99.90;;;;;;5063869;28;20139;-66
2021/07/03 09:08:12;;;;;;;18.67;8.45;;;26.50;99.90;;;;;;5065731;28;20134;-66
2021/07/03 09:10:41;;;;;;;19.05;9.02;;;27.00;99.90;;;;;;5065095;28;20129;-64
2021/07/03 09:13:08;;;;;;;13.07;9.75;;;27.70;99.90;;;;;;5067199;28;20047;-66
2021/07/03 09:15:37;;;;;;;14.82;9.10;;;27.80;99.90;;;;;;5060998;28;20051;-64
2021/07/03 09:18:06;;;;;;;16.02;9.90;;;28.20;99.90;;;;;;5064871;28;20066;-64
2021/07/03 09:20:35;;;;;;;14.50;9.23;;;28.40;99.90;;;;;;5063442;28;20152;-65
2021/07/03 09:23:08;;;;;;;14.23;8.38;;;29.00;99.90;;;;;;5065457;28;20058;-66
2021/07/03 09:25:38;;;;;;;10.77;7.78;;;29.40;99.90;;;;;;5073364;28;20196;-66
2021/07/03 09:28:11;;;;;;;10.68;7.72;;;30.00;99.90;;;;;;5069998;28;20174;-65
2021/07/03 09:30:38;;;;;;;11.02;7.03;;;30.20;99.90;;;;;;5072612;28;20047;-66
2021/07/03 09:33:05;;;;;;;9.57;7.40;;;30.50;99.90;;;;;;5074372;28;20089;-65
2021/07/03 09:35:32;;;;;;;9.65;6.95;;;30.90;99.90;;;;;;5075893;28;20083;-66
2021/07/03 09:38:08;;;;;;;10.55;7.43;;;31.30;99.90;;;;;;5073847;28;20148;-65
2021/07/03 09:40:38;;;;;;;9.98;7.30;;;31.30;99.90;;;;;;5073254;28;20052;-66
2021/07/03 09:43:07;;;;;;;9.93;7.32;;;31.30;99.90;;;;;;5076779;28;20668;-64
2021/07/03 09:45:35;;;;;;;10.55;6.88;;;31.70;99.90;;;;;;5074291;28;20138;-64
2021/07/03 09:48:07;;;;;;;9.98;7.30;;;32.10;99.90;;;;;;5075610;28;20073;-67
2021/07/03 09:50:34;;;;;;;12.65;7.43;;;32.40;99.90;;;;;;5072551;28;20059;-65
2021/07/03 09:53:02;;;;;;;10.57;7.35;;;32.50;99.90;;;;;;5073233;28;20054;-65
2021/07/03 09:55:29;;;;;;;14.20;7.32;;;32.60;99.80;;;;;;5072884;28;20195;-65
2021/07/03 09:57:58;;;;;;;13.02;8.05;;;32.90;98.60;;;;;;5073132;28;20051;-66
2021/07/03 10:00:25;;;;;;;11.05;7.63;;;32.70;97.50;;;;;;5073147;28;20062;-67
2021/07/03 10:02:54;;;;;;;15.82;7.75;;;32.90;97.50;;;;;;5075064;28;20148;-65
2021/07/03 10:05:23;;;;;;;10.65;7.30;;;33.40;98.00;;;;;;5073178;28;20043;-65
2021/07/03 10:07:56;;;;;;;9.98;7.05;;;33.30;94.70;;;;;;5067713;28;20375;-67
2021/07/03 10:10:27;;;;;;;12.30;7.60;;;33.00;94.10;;;;;;5069073;28;20569;-67
2021/07/03 10:13:03;;;;;;;11.13;7.00;;;33.00;95.50;;;;;;5066516;28;20674;-67
2021/07/03 10:15:33;;;;;;;8.68;6.03;;;33.60;92.50;;;;;;5071956;28;20119;-66
2021/07/03 10:18:12;;;;;;;8.45;6.63;;;33.40;90.30;;;;;;5072178;28;20061;-64
2021/07/03 10:20:40;;;;;;;21.30;6.45;;;32.90;91.80;;;;;;5070890;28;20489;-65
2021/07/03 10:23:07;;;;;;;9.85;7.13;;;32.70;90.50;;;;;;5072775;28;20052;-65
2021/07/03 10:25:36;;;;;;;9.68;6.95;;;32.60;90.70;;;;;;5075893;28;20048;-65
2021/07/03 10:28:08;;;;;;;13.52;6.57;;;32.80;92.60;;;;;;5074685;28;20055;-66
2021/07/03 10:30:36;;;;;;;8.85;6.32;;;32.60;89.60;;;;;;5076803;28;20437;-67
2021/07/03 10:33:05;;;;;;;9.50;6.32;;;32.10;90.50;;;;;;5075786;28;20436;-65
2021/07/03 10:35:44;;;;;;;11.07;6.90;;;32.10;92.70;;;;;;5071010;28;20272;-66
2021/07/03 10:38:19;;;;;;;12.38;7.00;;;32.50;92.40;;;;;;5070831;28;20040;-65
2021/07/03 10:40:46;;;;;;;12.07;6.90;;;32.40;93.00;;;;;;5072614;28;20059;-66
2021/07/03 10:43:15;;;;;;;8.88;6.20;;;33.00;92.60;;;;;;5070967;28;20044;-66
2021/07/03 10:45:48;;;;;;;8.65;6.43;;;33.30;91.40;;;;;;5072740;28;20333;-65
2021/07/03 10:48:17;;;;;;;9.90;6.63;;;33.50;91.30;;;;;;5072122;28;20051;-65
2021/07/03 10:50:44;;;;;;;9.45;6.60;;;33.00;90.30;;;;;;5079235;28;20453;-65
2021/07/03 10:53:25;;;;;;;7.90;6.05;;;32.50;91.40;;;;;;5077893;28;20048;-65
2021/07/03 10:55:53;;;;;;;10.00;6.60;;;32.20;91.70;;;;;;5079347;28;20060;-65
2021/07/03 10:58:26;;;;;;;10.43;6.75;;;31.90;91.00;;;;;;5076865;28;20144;-65
2021/07/03 11:00:54;;;;;;;9.43;6.32;;;31.30;91.50;;;;;;5080780;28;20130;-65
2021/07/03 11:03:23;;;;;;;10.98;6.30;;;31.00;91.70;;;;;;5080887;28;20496;-65
2021/07/03 11:05:51;;;;;;;10.52;6.05;;;30.50;89.10;;;;;;5079847;28;20047;-65
2021/07/03 11:08:20;;;;;;;9.32;6.35;;;29.90;91.10;;;;;;5078294;28;20052;-66
2021/07/03 11:10:48;;;;;;;9.40;5.47;;;30.00;91.20;;;;;;5083051;28;20055;-66
2021/07/03 11:13:22;;;;;;;11.70;6.82;;;30.90;90.90;;;;;;5082747;28;20411;-65
2021/07/03 11:15:50;;;;;;;7.97;5.63;;;31.50;87.40;;;;;;5081443;28;20087;-65
2021/07/03 11:18:17;;;;;;;9.70;6.20;;;31.60;89.20;;;;;;5082043;28;20105;-66
2021/07/03 11:20:45;;;;;;;9.40;6.80;;;32.10;90.20;;;;;;5079219;28;20039;-65
2021/07/03 11:23:13;;;;;;;8.63;5.95;;;31.90;90.00;;;;;;5081890;28;20060;-65
2021/07/03 11:25:42;;;;;;;10.30;5.85;;;31.60;88.90;;;;;;5081056;28;20046;-66
2021/07/03 11:28:11;;;;;;;7.85;5.55;;;31.90;87.60;;;;;;5075587;28;20063;-67
2021/07/03 11:30:41;;;;;;;9.38;5.53;;;32.10;86.00;;;;;;5076772;28;20066;-66
2021/07/03 11:33:09;;;;;;;7.90;5.63;;;32.40;89.10;;;;;;5080380;28;20044;-65
2021/07/03 11:35:40;;;;;;;8.95;5.53;;;32.80;83.70;;;;;;5074552;28;20569;-66
2021/07/03 11:38:07;;;;;;;9.50;5.75;;;32.70;85.00;;;;;;5075854;28;20208;-65
2021/07/03 11:40:34;;;;;;;7.45;5.60;;;33.00;88.00;;;;;;5075337;28;20047;-65
2021/07/03 11:43:04;;;;;;;8.68;5.85;;;33.10;85.70;;;;;;5076405;28;20159;-64
2021/07/03 11:45:33;;;;;;;8.05;5.43;;;32.60;85.80;;;;;;5075697;28;20048;-65
2021/07/03 11:48:08;;;;;;;7.75;5.43;;;32.90;84.20;;;;;;5078989;28;20399;-64
2021/07/03 11:50:37;;;;;;;9.52;5.05;;;33.10;84.60;;;;;;5076184;28;20089;-65
2021/07/03 11:53:07;;;;;;;10.13;4.68;;;32.50;83.40;;;;;;5078626;28;20149;-65
2021/07/03 11:55:37;;;;;;;9.40;6.20;;;33.00;83.90;;;;;;5072152;28;20078;-65
2021/07/03 11:58:05;;;;;;;8.90;6.38;;;32.40;84.60;;;;;;5072004;28;20040;-64
2021/07/03 12:00:34;;;;;;;7.90;5.78;;;31.80;85.80;;;;;;5074487;28;20449;-65
2021/07/03 12:03:02;;;;;;;8.07;5.30;;;32.50;84.10;;;;;;5076669;28;20400;-64
2021/07/03 12:05:33;;;;;;;8.02;5.10;;;32.10;88.10;;;;;;5072927;28;20044;-65
2021/07/03 12:08:03;;;;;;;8.38;5.50;;;32.60;83.10;;;;;;5079986;28;20450;-66
2021/07/03 12:10:37;;;;;;;7.28;4.93;;;32.80;82.20;;;;;;5080128;28;20080;-65
2021/07/03 12:13:06;;;;;;;10.68;5.63;;;33.50;84.40;;;;;;5085214;28;20482;-65
2021/07/03 12:15:33;;;;;;;9.48;5.47;;;34.00;80.60;;;;;;5083016;28;20109;-65
2021/07/03 12:18:00;;;;;;;8.48;5.07;;;34.20;82.20;;;;;;5080028;28;20140;-65
2021/07/03 12:20:29;;;;;;;8.35;5.40;;;34.70;80.50;;;;;;5078699;28;20109;-65
2021/07/03 12:23:01;;;;;;;7.40;4.90;;;34.40;79.60;;;;;;5077102;28;20513;-65
2021/07/03 12:25:29;;;;;;;10.93;5.40;;;34.90;78.50;;;;;;5079626;28;20140;-65
2021/07/03 12:28:00;;;;;;;7.85;4.72;;;34.10;77.80;;;;;;5079549;28;20067;-65
2021/07/03 12:30:29;;;;;;;10.65;5.20;;;34.50;77.60;;;;;;5079646;28;20122;-66
2021/07/03 12:33:09;;;;;;;7.75;5.00;;;35.00;75.20;;;;;;5077943;28;20051;-66
2021/07/03 12:35:41;;;;;;;6.03;4.93;;;34.50;73.50;;;;;;5079326;28;20058;-65